createdAt,value
2023-01-19T00:01:50.297Z,2.80
2023-01-19T00:04:18.823Z,2.80
2023-01-19T00:06:47.162Z,2.80
2023-01-19T00:09:15.504Z,2.80
2023-01-19T00:11:44.115Z,2.80
2023-01-19T00:14:12.465Z,2.80
2023-01-19T00:16:40.777Z,2.80
2023-01-19T00:19:10.683Z,2.80
2023-01-19T00:21:38.984Z,2.80
2023-01-19T00:24:07.870Z,2.70
2023-01-19T00:26:40.517Z,2.70
2023-01-19T00:29:08.882Z,2.70
2023-01-19T00:31:37.665Z,2.70
2023-01-19T00:34:07.331Z,2.70
2023-01-19T00:36:37.106Z,2.70
2023-01-19T00:39:05.558Z,2.70
2023-01-19T00:41:51.658Z,2.60
2023-01-19T00:44:20.096Z,2.60
2023-01-19T00:46:48.432Z,2.60
2023-01-19T00:49:16.777Z,2.60
2023-01-19T00:51:46.505Z,2.80
2023-01-19T00:54:14.852Z,2.50
2023-01-19T00:56:43.309Z,2.50
2023-01-19T00:59:12.118Z,2.40
2023-01-19T01:01:45.144Z,2.40
2023-01-19T01:04:14.698Z,2.40
2023-01-19T01:06:45.484Z,2.40
2023-01-19T01:09:15.253Z,2.30
2023-01-19T01:11:44.393Z,2.30
2023-01-19T01:14:14.168Z,2.30
2023-01-19T01:16:42.932Z,2.20
2023-01-19T01:19:11.377Z,2.20
2023-01-19T01:21:39.732Z,2.20
2023-01-19T01:24:09.678Z,2.10
2023-01-19T01:26:39.687Z,2.10
2023-01-19T01:29:08.706Z,2.10
2023-01-19T01:31:37.267Z,2.10
2023-01-19T01:34:05.879Z,2.10
2023-01-19T01:36:34.315Z,2.00
2023-01-19T01:39:02.923Z,2.00
2023-01-19T01:41:32.426Z,2.00
2023-01-19T01:44:06.264Z,2.00
2023-01-19T01:46:34.881Z,2.00
2023-01-19T01:49:07.351Z,1.90
2023-01-19T01:51:41.778Z,1.90
2023-01-19T01:54:17.138Z,1.90
2023-01-19T01:56:48.614Z,1.90
2023-01-19T01:59:29.722Z,1.80
2023-01-19T02:02:19.084Z,1.80
2023-01-19T02:04:51.392Z,1.80
2023-01-19T02:07:48.110Z,1.70
2023-01-19T02:10:34.943Z,1.70
2023-01-19T02:13:20.872Z,1.70
2023-01-19T02:15:54.225Z,1.60
2023-01-19T02:18:25.138Z,1.60
2023-01-19T02:21:04.725Z,1.60
2023-01-19T02:23:53.996Z,1.60
2023-01-19T02:26:25.580Z,1.50
2023-01-19T02:28:58.710Z,1.50
2023-01-19T02:31:28.631Z,1.50
2023-01-19T02:33:57.753Z,1.50
2023-01-19T02:36:31.515Z,1.50
2023-01-19T02:39:03.010Z,1.50
2023-01-19T02:41:36.647Z,1.50
2023-01-19T02:44:08.027Z,1.50
2023-01-19T02:46:36.577Z,1.40
2023-01-19T02:49:05.031Z,1.40
2023-01-19T02:51:34.096Z,1.40
2023-01-19T02:54:21.266Z,1.40
2023-01-19T02:57:07.167Z,1.30
2023-01-19T02:59:51.358Z,1.30
2023-01-19T03:02:31.946Z,1.30
2023-01-19T03:05:22.987Z,1.30
2023-01-19T03:08:01.370Z,1.20
2023-01-19T03:10:40.572Z,1.20
2023-01-19T03:13:15.606Z,1.20
2023-01-19T03:15:49.700Z,1.20
2023-01-19T03:18:23.465Z,1.10
2023-01-19T03:20:56.604Z,1.10
2023-01-19T03:23:31.670Z,1.10
2023-01-19T03:26:03.786Z,1.00
2023-01-19T03:28:33.949Z,1.00
2023-01-19T03:31:07.488Z,0.90
2023-01-19T03:33:40.539Z,0.90
2023-01-19T03:36:15.144Z,0.90
2023-01-19T03:38:46.180Z,1.40
2023-01-19T03:41:19.105Z,0.80
2023-01-19T03:43:51.348Z,0.80
2023-01-19T03:46:21.415Z,0.80
2023-01-19T03:48:50.141Z,0.70
2023-01-19T03:51:19.485Z,0.70
2023-01-19T03:53:49.903Z,0.70
2023-01-19T03:56:25.335Z,0.70
2023-01-19T03:58:55.603Z,0.60
2023-01-19T04:01:25.227Z,0.60
2023-01-19T04:03:54.393Z,0.60
2023-01-19T04:06:23.181Z,0.60
2023-01-19T04:08:52.991Z,0.60
2023-01-19T04:11:22.773Z,0.50
2023-01-19T04:13:51.716Z,0.50
2023-01-19T04:16:21.262Z,0.50
2023-01-19T04:18:52.622Z,0.50
2023-01-19T04:21:21.371Z,0.40
2023-01-19T04:23:50.804Z,0.40
2023-01-19T04:26:19.179Z,0.40
2023-01-19T04:28:48.893Z,0.30
2023-01-19T04:31:17.371Z,0.30
2023-01-19T04:33:45.740Z,0.30
2023-01-19T04:36:14.133Z,0.20
2023-01-19T04:38:42.827Z,0.20
2023-01-19T04:41:11.194Z,0.10
2023-01-19T04:43:39.585Z,0.10
2023-01-19T04:46:09.410Z,0.00
2023-01-19T04:48:37.826Z,0.00
2023-01-19T04:51:06.752Z,0.00
2023-01-19T04:53:35.499Z,0.00
2023-01-19T04:56:03.853Z,-0.10
2023-01-19T04:58:32.308Z,-0.10
2023-01-19T05:01:00.895Z,-0.10
2023-01-19T05:03:30.625Z,-0.10
2023-01-19T05:05:59.008Z,-0.20
2023-01-19T05:08:27.359Z,-0.20
2023-01-19T05:10:57.594Z,-0.20
2023-01-19T05:13:26.167Z,-0.20
2023-01-19T05:15:54.591Z,-0.20
2023-01-19T05:18:22.974Z,-0.20
2023-01-19T05:20:52.684Z,-0.30
2023-01-19T05:23:21.050Z,-0.30
2023-01-19T05:25:49.498Z,-0.30
2023-01-19T05:28:17.932Z,-0.40
2023-01-19T05:30:46.389Z,-0.40
2023-01-19T05:33:14.716Z,-0.20
2023-01-19T05:35:43.051Z,-0.50
2023-01-19T05:38:13.614Z,-0.50
2023-01-19T05:40:42.896Z,-0.60
2023-01-19T05:43:11.238Z,-0.60
2023-01-19T05:45:39.878Z,-0.70
2023-01-19T05:48:10.127Z,-0.70
2023-01-19T05:50:38.555Z,-0.70
2023-01-19T05:53:06.891Z,-0.70
2023-01-19T05:55:36.975Z,-0.80
2023-01-19T05:58:05.339Z,-0.80
2023-01-19T06:00:33.653Z,-0.90
2023-01-19T06:03:02.659Z,-0.90
2023-01-19T06:05:31.345Z,-0.90
2023-01-19T06:07:59.698Z,-0.90
2023-01-19T06:10:28.231Z,-0.90
2023-01-19T06:12:57.948Z,-0.90
2023-01-19T06:15:26.328Z,-0.90
2023-01-19T06:17:54.868Z,-0.90
2023-01-19T06:20:23.167Z,-0.90
2023-01-19T06:22:52.086Z,-0.90
2023-01-19T06:25:20.502Z,-0.90
2023-01-19T06:27:49.081Z,-0.90
2023-01-19T06:30:19.755Z,-0.90
2023-01-19T06:32:48.543Z,-0.90
2023-01-19T06:35:18.373Z,-1.00
2023-01-19T06:37:46.674Z,-1.00
2023-01-19T06:40:15.021Z,-1.00
2023-01-19T06:42:43.523Z,-0.90
2023-01-19T06:45:12.364Z,-1.00
2023-01-19T06:47:42.112Z,-1.00
2023-01-19T06:50:12.182Z,-1.00
2023-01-19T06:52:42.531Z,-1.00
2023-01-19T06:55:11.977Z,-1.00
2023-01-19T06:57:40.631Z,-1.00
2023-01-19T07:00:11.817Z,-1.00
2023-01-19T07:02:43.696Z,-1.00
2023-01-19T07:05:14.456Z,-1.00
2023-01-19T07:07:44.804Z,-1.00
2023-01-19T07:10:15.714Z,-1.00
2023-01-19T07:12:46.554Z,-1.00
2023-01-19T07:15:15.949Z,-1.00
2023-01-19T07:17:45.686Z,-1.00
2023-01-19T07:20:15.071Z,-1.00
2023-01-19T07:22:45.765Z,-1.00
2023-01-19T07:25:14.662Z,-1.00
2023-01-19T07:27:43.274Z,-0.90
2023-01-19T07:30:12.892Z,-0.90
2023-01-19T07:32:42.610Z,-0.90
2023-01-19T07:35:12.550Z,-0.90
2023-01-19T07:37:40.944Z,-0.90
2023-01-19T07:40:10.897Z,-0.90
2023-01-19T07:42:39.223Z,-0.90
2023-01-19T07:45:09.661Z,-0.90
2023-01-19T07:47:37.960Z,-0.90
2023-01-19T07:50:07.609Z,-0.90
2023-01-19T07:52:37.366Z,-0.90
2023-01-19T07:55:06.656Z,-0.90
2023-01-19T07:57:35.156Z,-0.90
2023-01-19T08:00:05.019Z,-0.90
2023-01-19T08:02:41.264Z,-0.90
2023-01-19T08:05:10.535Z,-0.90
2023-01-19T08:07:41.178Z,-0.90
2023-01-19T08:10:11.326Z,-0.90
2023-01-19T08:12:39.669Z,-0.90
2023-01-19T08:15:09.950Z,-0.90
2023-01-19T08:17:38.977Z,-0.90
2023-01-19T08:20:09.447Z,-0.90
2023-01-19T08:22:39.248Z,-0.90
2023-01-19T08:25:08.474Z,-0.90
2023-01-19T08:27:36.838Z,-0.90
2023-01-19T08:30:06.039Z,-0.80
2023-01-19T08:32:34.443Z,-0.90
2023-01-19T08:35:02.700Z,-0.80
2023-01-19T08:37:32.689Z,-0.80
2023-01-19T08:40:04.078Z,-0.80
2023-01-19T08:42:32.331Z,-0.80
2023-01-19T08:45:00.635Z,-0.70
2023-01-19T08:47:29.021Z,-0.80
2023-01-19T08:49:57.331Z,-0.70
2023-01-19T08:52:26.897Z,-0.70
2023-01-19T08:54:57.006Z,-0.70
2023-01-19T08:57:28.250Z,-0.70
2023-01-19T08:59:56.663Z,-0.70
2023-01-19T09:02:25.871Z,-0.60
2023-01-19T09:04:54.905Z,-0.60
2023-01-19T09:07:24.188Z,-0.60
2023-01-19T09:09:52.782Z,-0.60
2023-01-19T09:12:21.704Z,-0.60
2023-01-19T09:14:52.221Z,-0.50
2023-01-19T09:17:21.036Z,-0.50
2023-01-19T09:19:49.914Z,-0.50
2023-01-19T09:22:18.505Z,-0.40
2023-01-19T09:24:47.287Z,-0.40
2023-01-19T09:27:16.671Z,-0.30
2023-01-19T09:29:52.435Z,-0.30
2023-01-19T09:32:23.073Z,-0.20
2023-01-19T09:34:54.067Z,-0.20
2023-01-19T09:37:23.191Z,-0.20
2023-01-19T09:39:52.372Z,-0.10
2023-01-19T09:42:31.834Z,-0.10
2023-01-19T09:45:02.212Z,0.00
2023-01-19T09:47:34.125Z,0.00
2023-01-19T09:50:12.236Z,0.10
2023-01-19T09:52:45.458Z,0.20
2023-01-19T09:55:24.317Z,0.70
2023-01-19T09:57:53.538Z,0.20
2023-01-19T10:00:24.797Z,0.30
2023-01-19T10:03:00.885Z,0.30
2023-01-19T10:05:35.967Z,0.40
2023-01-19T10:08:20.149Z,0.40
2023-01-19T10:10:55.310Z,0.50
2023-01-19T10:13:35.482Z,0.10
2023-01-19T10:16:23.886Z,0.60
2023-01-19T10:18:57.812Z,0.60
2023-01-19T10:21:31.648Z,0.70
2023-01-19T10:24:06.360Z,0.80
2023-01-19T10:26:40.558Z,0.80
2023-01-19T10:29:16.039Z,0.90
2023-01-19T10:31:47.875Z,0.90
2023-01-19T10:34:22.309Z,1.00
2023-01-19T10:37:05.027Z,1.10
2023-01-19T10:39:36.933Z,1.10
2023-01-19T10:42:13.842Z,1.20
2023-01-19T10:44:43.333Z,1.30
2023-01-19T10:47:18.114Z,1.40
2023-01-19T10:49:49.102Z,1.50
2023-01-19T10:52:29.722Z,1.60
2023-01-19T10:54:59.456Z,1.70
2023-01-19T10:57:32.380Z,1.80
2023-01-19T11:00:01.072Z,1.90
2023-01-19T11:02:31.295Z,1.90
2023-01-19T11:05:04.438Z,2.30
2023-01-19T11:07:35.086Z,2.10
2023-01-19T11:10:25.197Z,2.20
2023-01-19T11:13:04.602Z,2.30
2023-01-19T11:15:42.725Z,2.40
2023-01-19T11:18:28.818Z,2.50
2023-01-19T11:21:02.919Z,2.50
2023-01-19T11:23:34.552Z,2.60
2023-01-19T11:26:06.571Z,2.70
2023-01-19T11:28:38.250Z,2.80
2023-01-19T11:31:20.182Z,2.90
2023-01-19T11:33:52.514Z,3.00
2023-01-19T11:36:24.444Z,3.10
2023-01-19T11:38:56.185Z,3.20
2023-01-19T11:41:29.556Z,3.30
2023-01-19T11:44:03.707Z,3.90
2023-01-19T11:46:35.289Z,3.50
2023-01-19T11:49:07.300Z,3.60
2023-01-19T11:51:47.418Z,4.10
2023-01-19T11:54:23.764Z,3.80
2023-01-19T11:56:54.375Z,3.90
2023-01-19T11:59:25.173Z,4.10
2023-01-19T12:01:57.893Z,4.10
2023-01-19T12:04:30.724Z,4.20
2023-01-19T12:07:07.519Z,4.20
2023-01-19T12:09:42.621Z,4.40
2023-01-19T12:12:27.786Z,4.40
2023-01-19T12:15:01.956Z,4.50
2023-01-19T12:17:36.623Z,4.60
2023-01-19T12:20:25.844Z,4.60
2023-01-19T12:23:10.034Z,4.70
2023-01-19T12:25:54.771Z,4.70
2023-01-19T12:28:30.290Z,4.80
2023-01-19T12:31:00.133Z,4.80
2023-01-19T12:33:36.081Z,4.80
2023-01-19T12:36:10.912Z,4.80
2023-01-19T12:38:50.175Z,4.90
2023-01-19T12:41:28.578Z,4.90
2023-01-19T12:44:34.030Z,4.90
2023-01-19T12:47:21.190Z,4.90
2023-01-19T12:49:53.715Z,4.90
2023-01-19T12:52:29.133Z,4.90
2023-01-19T12:55:04.350Z,4.90
2023-01-19T12:57:37.105Z,4.90
2023-01-19T13:00:09.980Z,4.90
2023-01-19T13:02:48.824Z,4.90
2023-01-19T13:05:26.318Z,4.90
2023-01-19T13:08:51.593Z,4.90
2023-01-19T13:11:26.706Z,4.90
2023-01-19T13:14:36.044Z,4.90
2023-01-19T13:17:26.015Z,4.90
2023-01-19T13:20:24.304Z,4.80
2023-01-19T13:23:25.378Z,4.80
2023-01-19T13:26:02.046Z,4.80
2023-01-19T13:28:40.521Z,4.70
2023-01-19T13:31:10.151Z,4.70
2023-01-19T13:33:47.480Z,4.70
2023-01-19T13:36:26.586Z,4.70
2023-01-19T13:38:56.917Z,4.60
2023-01-19T13:41:28.632Z,4.60
2023-01-19T13:44:04.154Z,4.60
2023-01-19T13:46:33.639Z,4.60
2023-01-19T13:49:06.724Z,4.60
2023-01-19T13:51:35.152Z,4.60
2023-01-19T13:54:03.745Z,5.00
2023-01-19T13:56:32.404Z,4.50
2023-01-19T13:59:11.728Z,4.60
2023-01-19T14:01:43.002Z,4.60
2023-01-19T14:04:30.548Z,4.50
2023-01-19T14:07:02.056Z,4.50
2023-01-19T14:09:30.642Z,4.60
2023-01-19T14:12:23.178Z,4.50
2023-01-19T14:14:53.186Z,4.50
2023-01-19T14:17:27.806Z,4.50
2023-01-19T14:19:58.761Z,4.50
2023-01-19T14:22:41.821Z,4.50
2023-01-19T14:25:30.364Z,4.50
2023-01-19T14:28:40.390Z,4.50
2023-01-19T14:31:26.081Z,4.50
2023-01-19T14:33:58.587Z,4.50
2023-01-19T14:36:34.647Z,4.70
2023-01-19T14:39:04.215Z,4.80
2023-01-19T14:41:39.637Z,4.50
2023-01-19T14:44:12.213Z,4.50
2023-01-19T14:46:47.976Z,4.50
2023-01-19T14:49:21.910Z,4.50
2023-01-19T14:51:51.162Z,4.50
2023-01-19T14:54:28.222Z,4.50
2023-01-19T14:56:56.565Z,4.50
2023-01-19T14:59:24.865Z,4.50
2023-01-19T15:01:54.928Z,4.80
2023-01-19T15:04:25.386Z,4.50
2023-01-19T15:06:54.015Z,4.80
2023-01-19T15:09:22.445Z,4.40
2023-01-19T15:11:52.727Z,4.40
2023-01-19T15:14:22.699Z,4.40
2023-01-19T15:16:51.355Z,4.40
2023-01-19T15:19:21.028Z,4.30
2023-01-19T15:21:49.351Z,4.30
2023-01-19T15:24:18.154Z,4.30
2023-01-19T15:26:46.734Z,4.30
2023-01-19T15:29:25.299Z,4.20
2023-01-19T15:31:54.312Z,4.20
2023-01-19T15:34:23.972Z,4.20
2023-01-19T15:36:52.306Z,4.10
2023-01-19T15:39:20.724Z,4.10
2023-01-19T15:41:49.123Z,4.10
2023-01-19T15:44:17.455Z,4.00
2023-01-19T15:46:45.899Z,4.00
2023-01-19T15:49:14.217Z,4.00
2023-01-19T15:51:43.941Z,4.00
2023-01-19T15:54:15.386Z,3.90
2023-01-19T15:56:43.725Z,3.90
2023-01-19T15:59:12.057Z,3.90
2023-01-19T16:01:41.883Z,3.80
2023-01-19T16:04:11.881Z,3.80
2023-01-19T16:06:40.374Z,3.80
2023-01-19T16:09:12.201Z,3.80
2023-01-19T16:11:40.636Z,3.90
2023-01-19T16:14:09.114Z,3.70
2023-01-19T16:16:38.063Z,4.60
2023-01-19T16:19:06.416Z,3.70
2023-01-19T16:21:34.808Z,3.70
2023-01-19T16:24:03.086Z,3.60
2023-01-19T16:26:35.247Z,3.60
2023-01-19T16:29:08.976Z,3.80
2023-01-19T16:31:37.762Z,3.60
2023-01-19T16:34:06.308Z,3.50
2023-01-19T16:36:38.029Z,3.50
2023-01-19T16:39:08.592Z,3.50
2023-01-19T16:41:39.063Z,3.50
2023-01-19T16:44:08.222Z,3.50
2023-01-19T16:46:40.233Z,3.40
2023-01-19T16:49:12.816Z,3.40
2023-01-19T16:51:41.542Z,3.40
2023-01-19T16:54:14.162Z,3.40
2023-01-19T16:56:44.022Z,3.30
2023-01-19T16:59:14.319Z,3.30
2023-01-19T17:01:44.828Z,3.30
2023-01-19T17:04:13.527Z,3.30
2023-01-19T17:06:42.381Z,3.30
2023-01-19T17:09:11.053Z,3.30
2023-01-19T17:11:40.383Z,3.30
2023-01-19T17:14:14.033Z,3.20
2023-01-19T17:16:44.269Z,3.20
2023-01-19T17:19:17.071Z,3.60
2023-01-19T17:21:47.058Z,3.20
2023-01-19T17:24:17.830Z,3.20
2023-01-19T17:26:48.710Z,3.20
2023-01-19T17:29:19.166Z,3.20
2023-01-19T17:31:47.843Z,3.10
2023-01-19T17:34:16.229Z,3.10
2023-01-19T17:36:44.866Z,3.10
2023-01-19T17:39:16.845Z,3.10
2023-01-19T17:41:45.238Z,3.10
2023-01-19T17:44:13.644Z,3.10
2023-01-19T17:46:43.341Z,3.10
2023-01-19T17:49:12.412Z,3.10
2023-01-19T17:51:40.786Z,3.20
2023-01-19T17:54:10.769Z,3.10
2023-01-19T17:56:41.360Z,3.20
2023-01-19T17:59:09.865Z,3.20
2023-01-19T18:01:40.536Z,3.20
2023-01-19T18:04:10.658Z,3.20
2023-01-19T18:06:40.266Z,3.20
2023-01-19T18:09:09.436Z,3.20
2023-01-19T18:11:37.829Z,3.20
2023-01-19T18:14:06.738Z,3.20
2023-01-19T18:16:35.920Z,3.30
2023-01-19T18:19:04.707Z,3.30
2023-01-19T18:21:34.434Z,3.30
2023-01-19T18:24:05.317Z,3.30
2023-01-19T18:26:35.661Z,3.30
2023-01-19T18:29:04.214Z,3.30
2023-01-19T18:31:32.636Z,3.30
2023-01-19T18:34:01.279Z,3.40
2023-01-19T18:36:32.015Z,3.40
2023-01-19T18:39:02.464Z,3.40
2023-01-19T18:41:31.013Z,3.40
2023-01-19T18:43:59.890Z,3.50
2023-01-19T18:46:28.465Z,3.50
2023-01-19T18:48:56.796Z,3.40
2023-01-19T18:51:25.166Z,3.50
2023-01-19T18:53:53.614Z,3.50
2023-01-19T18:56:23.337Z,3.50
2023-01-19T18:58:52.273Z,3.50
2023-01-19T19:01:26.306Z,3.60
2023-01-19T19:03:55.661Z,3.60
2023-01-19T19:06:27.072Z,3.60
2023-01-19T19:08:57.956Z,3.60
2023-01-19T19:11:28.884Z,4.20
2023-01-19T19:13:59.537Z,3.70
2023-01-19T19:16:28.626Z,3.70
2023-01-19T19:18:57.188Z,3.70
2023-01-19T19:21:25.697Z,3.70
2023-01-19T19:23:55.898Z,3.70
2023-01-19T19:26:25.829Z,3.70
2023-01-19T19:28:55.651Z,3.70
2023-01-19T19:31:26.864Z,4.20
2023-01-19T19:33:56.763Z,3.70
2023-01-19T19:36:26.428Z,3.70
2023-01-19T19:38:55.177Z,3.80
2023-01-19T19:41:27.013Z,3.80
2023-01-19T19:43:57.287Z,3.80
2023-01-19T19:46:27.045Z,3.80
2023-01-19T19:48:55.693Z,3.80
2023-01-19T19:51:27.184Z,3.80
2023-01-19T19:53:58.699Z,3.80
2023-01-19T19:56:30.284Z,3.80
2023-01-19T19:59:00.772Z,3.90
2023-01-19T20:01:33.406Z,3.90
2023-01-19T20:04:07.736Z,3.90
2023-01-19T20:06:38.900Z,3.90
2023-01-19T20:09:09.017Z,3.50
2023-01-19T20:11:38.079Z,4.00
2023-01-19T20:14:09.428Z,4.00
2023-01-19T20:16:39.382Z,4.00
2023-01-19T20:19:08.050Z,4.00
2023-01-19T20:21:38.716Z,4.00
2023-01-19T20:24:10.965Z,4.00
2023-01-19T20:26:44.259Z,4.00
2023-01-19T20:29:14.243Z,4.00
2023-01-19T20:31:46.234Z,4.10
2023-01-19T20:34:18.420Z,4.10
2023-01-19T20:36:49.839Z,4.10
2023-01-19T20:39:18.932Z,4.10
2023-01-19T20:41:50.094Z,4.10
2023-01-19T20:44:24.520Z,4.10
2023-01-19T20:46:53.997Z,4.20
2023-01-19T20:49:23.128Z,4.20
2023-01-19T20:51:52.156Z,4.20
2023-01-19T20:54:24.366Z,4.20
2023-01-19T20:56:53.115Z,4.20
2023-01-19T20:59:23.302Z,4.20
2023-01-19T21:01:51.943Z,4.20
2023-01-19T21:04:20.557Z,4.20
2023-01-19T21:06:49.161Z,4.20
2023-01-19T21:09:18.603Z,4.20
2023-01-19T21:11:47.038Z,4.30
2023-01-19T21:14:15.389Z,4.30
2023-01-19T21:16:45.149Z,4.60
2023-01-19T21:19:13.570Z,4.30
2023-01-19T21:21:41.963Z,4.30
2023-01-19T21:24:12.073Z,4.30
2023-01-19T21:26:41.827Z,4.30
2023-01-19T21:29:13.372Z,4.30
2023-01-19T21:31:42.169Z,4.30
2023-01-19T21:34:12.962Z,4.30
2023-01-19T21:36:42.083Z,4.30
2023-01-19T21:39:10.931Z,4.30
2023-01-19T21:41:40.330Z,4.40
2023-01-19T21:44:08.959Z,4.30
2023-01-19T21:46:37.433Z,4.40
2023-01-19T21:49:08.458Z,4.40
2023-01-19T21:51:38.794Z,4.40
2023-01-19T21:54:08.233Z,4.40
2023-01-19T21:56:38.682Z,4.40
2023-01-19T21:59:07.590Z,4.40
2023-01-19T22:01:36.396Z,4.40
2023-01-19T22:04:06.245Z,4.40
2023-01-19T22:06:35.394Z,4.40
2023-01-19T22:09:05.807Z,4.40
2023-01-19T22:11:34.616Z,4.40
2023-01-19T22:14:03.063Z,4.50
2023-01-19T22:16:32.142Z,4.50
2023-01-19T22:19:02.668Z,4.50
2023-01-19T22:21:34.080Z,4.50
2023-01-19T22:24:06.120Z,4.50
2023-01-19T22:26:35.415Z,4.50
2023-01-19T22:29:05.926Z,4.50
2023-01-19T22:31:34.487Z,4.50
2023-01-19T22:34:02.961Z,4.50
2023-01-19T22:36:34.049Z,4.50
2023-01-19T22:39:07.063Z,4.50
2023-01-19T22:41:37.780Z,4.50
2023-01-19T22:44:09.299Z,4.90
2023-01-19T22:46:38.795Z,4.50
2023-01-19T22:49:08.548Z,4.50
2023-01-19T22:51:37.457Z,4.50
2023-01-19T22:54:07.537Z,4.50
2023-01-19T22:56:38.509Z,4.50
2023-01-19T22:59:08.333Z,4.50
2023-01-19T23:01:39.666Z,4.50
2023-01-19T23:04:11.971Z,4.60
2023-01-19T23:06:40.427Z,4.60
2023-01-19T23:09:14.579Z,4.60
2023-01-19T23:11:45.271Z,4.60
2023-01-19T23:14:17.182Z,4.60
2023-01-19T23:16:47.167Z,4.60
2023-01-19T23:19:17.317Z,4.60
2023-01-19T23:21:46.559Z,4.60
2023-01-19T23:24:16.257Z,4.60
2023-01-19T23:26:44.714Z,4.60
2023-01-19T23:29:15.399Z,4.60
2023-01-19T23:31:47.112Z,4.60
2023-01-19T23:34:16.043Z,4.60
2023-01-19T23:36:45.026Z,4.60
2023-01-19T23:39:18.206Z,4.60
2023-01-19T23:41:47.479Z,4.60
2023-01-19T23:44:17.149Z,4.60
2023-01-19T23:46:45.637Z,5.00
2023-01-19T23:49:14.240Z,4.60
2023-01-19T23:51:43.765Z,5.10
2023-01-19T23:54:12.938Z,4.60
2023-01-19T23:56:43.158Z,4.70
2023-01-19T23:59:14.592Z,4.70
